Time;durP1;ratioP1;P1;durP2;ratioP2;P2;SDS_P1;SDS_P2;PMS_P1;PMS_P2;Temp;Humidity;BMP_temperature;BMP_pressure;BME280_temperature;BME280_humidity;BME280_pressure;Samples;Min_cycle;Max_cycle;Signal;HPM_P1;HPM_P2
2021/08/06 00:00:14;;;;;;;14.85;13.45;;;;;;;18.79;67.38;100185.53;693828;28;856;-60
2021/08/06 00:00:34;;;;;;;15.02;13.63;;;;;;;18.80;67.45;100185.41;693867;28;813;-60
2021/08/06 00:00:54;;;;;;;14.90;13.50;;;;;;;18.79;67.27;100191.75;692632;28;1408;-59
2021/08/06 00:01:16;;;;;;;14.33;13.03;;;;;;;18.77;67.64;100188.34;691202;28;892;-59
2021/08/06 00:01:40;;;;;;;14.75;13.35;;;;;;;18.73;67.59;100187.75;691095;28;900;-59
2021/08/06 00:02:03;;;;;;;14.45;13.05;;;;;;;18.75;67.51;100182.28;690938;28;1914;-60
2021/08/06 00:02:26;;;;;;;14.35;12.98;;;;;;;18.79;67.22;100180.19;691111;28;889;-59
2021/08/06 00:02:46;;;;;;;15.32;13.48;;;;;;;18.80;67.38;100180.06;690593;28;817;-60
2021/08/06 00:03:07;;;;;;;14.90;13.40;;;;;;;18.80;67.42;100179.22;690789;28;988;-59
2021/08/06 00:03:28;;;;;;;14.45;13.00;;;;;;;18.81;67.48;100184.44;690742;28;1054;-60
2021/08/06 00:03:48;;;;;;;14.55;13.05;;;;;;;18.81;67.38;100180.91;692716;28;1496;-59
2021/08/06 00:04:08;;;;;;;13.80;12.50;;;;;;;18.81;67.46;100181.75;693850;28;959;-60
2021/08/06 00:04:29;;;;;;;13.93;12.53;;;;;;;18.79;67.28;100186.41;693838;28;882;-60
2021/08/06 00:04:49;;;;;;;14.32;12.93;;;;;;;18.77;67.20;100183.00;693867;28;888;-59
2021/08/06 00:05:10;;;;;;;14.73;13.33;;;;;;;18.79;67.42;100181.06;693876;28;854;-60
2021/08/06 00:05:30;;;;;;;14.70;13.30;;;;;;;18.75;67.31;100182.28;693772;28;881;-60
2021/08/06 00:05:54;;;;;;;15.10;13.70;;;;;;;18.76;67.25;100178.66;691982;28;1400;-60
2021/08/06 00:06:14;;;;;;;14.48;13.15;;;;;;;18.77;67.15;100188.34;691107;28;919;-60
2021/08/06 00:06:34;;;;;;;14.20;12.90;;;;;;;18.74;67.40;100178.78;690999;28;1039;-60
2021/08/06 00:06:55;;;;;;;14.35;13.05;;;;;;;18.71;67.40;100178.16;691080;28;1403;-60
2021/08/06 00:07:20;;;;;;;14.47;13.07;;;;;;;18.71;67.58;100183.50;691138;28;1034;-60
2021/08/06 00:07:46;;;;;;;14.30;12.93;;;;;;;18.69;67.52;100172.13;691077;28;1229;-59
2021/08/06 00:08:06;;;;;;;14.45;13.07;;;;;;;18.67;67.57;100182.06;691128;28;864;-60
2021/08/06 00:08:27;;;;;;;14.65;13.15;;;;;;;18.67;67.60;100161.56;691066;28;872;-60
2021/08/06 00:08:47;;;;;;;14.03;12.63;;;;;;;18.67;67.73;100166.91;691091;28;798;-59
2021/08/06 00:09:11;;;;;;;14.03;12.63;;;;;;;18.69;67.70;100172.97;691121;28;1040;-59
2021/08/06 00:09:36;;;;;;;13.90;12.50;;;;;;;18.69;67.32;100174.78;690995;28;1163;-59
2021/08/06 00:09:56;;;;;;;14.02;12.68;;;;;;;18.69;67.44;100180.13;691121;28;959;-60
2021/08/06 00:10:16;;;;;;;13.55;12.25;;;;;;;18.70;67.73;100174.66;690969;28;1018;-60
2021/08/06 00:10:37;;;;;;;13.70;12.37;;;;;;;18.72;67.51;100169.22;691141;28;919;-59
2021/08/06 00:10:57;;;;;;;13.53;12.13;;;;;;;18.72;67.40;100175.41;691169;28;913;-60
2021/08/06 00:11:26;;;;;;;13.85;12.45;;;;;;;18.73;67.45;100170.91;690881;28;1481;-60
2021/08/06 00:11:46;;;;;;;13.68;12.38;;;;;;;18.75;67.65;100171.59;691051;28;801;-60
2021/08/06 00:12:10;;;;;;;13.27;11.97;;;;;;;18.74;67.74;100172.59;690951;28;864;-60
2021/08/06 00:12:31;;;;;;;13.52;12.18;;;;;;;18.76;67.90;100176.00;691145;28;893;-60
2021/08/06 00:12:51;;;;;;;13.30;11.98;;;;;;;18.76;67.42;100170.66;690570;28;1030;-60
2021/08/06 00:13:15;;;;;;;13.20;11.90;;;;;;;18.77;67.51;100169.66;691019;28;1097;-60
2021/08/06 00:13:35;;;;;;;13.70;12.50;;;;;;;18.76;67.53;100170.66;691088;28;1098;-60
2021/08/06 00:13:57;;;;;;;13.77;12.47;;;;;;;18.77;67.44;100175.00;691099;28;1424;-60
2021/08/06 00:14:17;;;;;;;13.73;12.43;;;;;;;18.77;67.33;100172.34;693492;28;1468;-60
2021/08/06 00:14:37;;;;;;;13.73;12.33;;;;;;;18.77;67.44;100169.66;693762;28;1050;-60
2021/08/06 00:14:58;;;;;;;13.40;12.07;;;;;;;18.78;67.44;100167.84;693705;28;1019;-60
2021/08/06 00:15:18;;;;;;;13.03;11.73;;;;;;;18.80;67.39;100166.72;693837;28;912;-59
2021/08/06 00:15:38;;;;;;;12.90;11.60;;;;;;;18.80;67.22;100166.72;693860;28;989;-59
2021/08/06 00:15:59;;;;;;;13.30;12.00;;;;;;;18.80;67.34;100166.72;693725;28;1153;-59
2021/08/06 00:16:19;;;;;;;14.13;12.70;;;;;;;18.78;67.57;100168.66;693839;28;896;-59
2021/08/06 00:16:39;;;;;;;13.73;12.33;;;;;;;18.79;67.40;100167.72;693656;28;1258;-59
2021/08/06 00:17:02;;;;;;;13.20;11.90;;;;;;;18.78;67.71;100168.66;693711;28;1029;-59
2021/08/06 00:17:23;;;;;;;13.38;11.98;;;;;;;18.79;67.84;100159.72;693841;28;934;-59
2021/08/06 00:17:43;;;;;;;13.90;12.60;;;;;;;18.78;67.66;100163.34;693838;28;816;-59
2021/08/06 00:18:06;;;;;;;13.48;12.20;;;;;;;18.78;67.77;100163.34;693399;28;1408;-59
2021/08/06 00:18:26;;;;;;;13.65;12.35;;;;;;;18.78;67.59;100168.66;691046;28;922;-59
2021/08/06 00:18:47;;;;;;;13.45;12.15;;;;;;;18.76;67.60;100165.31;691073;28;797;-59
2021/08/06 00:19:07;;;;;;;13.50;12.10;;;;;;;18.74;67.45;100162.75;691059;28;838;-60
2021/08/06 00:19:30;;;;;;;13.23;11.93;;;;;;;18.72;67.55;100153.22;691006;28;1166;-60
2021/08/06 00:19:51;;;;;;;13.10;11.80;;;;;;;18.70;67.72;100160.47;690946;28;845;-60
2021/08/06 00:20:11;;;;;;;13.40;12.10;;;;;;;18.69;67.63;100164.13;691438;28;1412;-60
2021/08/06 00:20:32;;;;;;;12.85;11.65;;;;;;;18.68;67.88;100157.91;691116;28;1444;-60
2021/08/06 00:20:53;;;;;;;13.35;12.05;;;;;;;18.68;67.68;100151.72;691023;28;885;-59
2021/08/06 00:21:13;;;;;;;12.82;11.63;;;;;;;18.66;67.90;100153.72;691062;28;1484;-60
2021/08/06 00:21:36;;;;;;;13.17;11.87;;;;;;;18.61;67.86;100151.41;690978;28;1465;-60
2021/08/06 00:21:56;;;;;;;13.38;12.18;;;;;;;18.64;67.83;100161.00;691068;28;962;-60
2021/08/06 00:22:16;;;;;;;13.13;11.93;;;;;;;18.66;67.96;100156.38;691066;28;1914;-60
2021/08/06 00:22:37;;;;;;;13.40;12.10;;;;;;;18.66;67.89;100159.88;690905;28;936;-60
2021/08/06 00:22:57;;;;;;;12.80;11.50;;;;;;;18.71;67.72;100154.13;690738;28;972;-60
2021/08/06 00:23:18;;;;;;;12.77;11.53;;;;;;;18.70;67.77;100145.28;690941;28;1027;-61
2021/08/06 00:23:39;;;;;;;13.00;11.80;;;;;;;18.71;67.79;100154.13;691252;28;1464;-58
2021/08/06 00:23:59;;;;;;;12.97;11.67;;;;;;;18.68;67.76;100155.25;693672;28;912;-61
2021/08/06 00:24:32;;;;;;;12.40;11.17;;;;;;;18.65;67.69;100154.66;693867;28;828;-59
2021/08/06 00:24:52;;;;;;;12.90;11.60;;;;;;;18.66;68.03;100156.38;693828;28;897;-61
2021/08/06 00:25:13;;;;;;;12.90;11.60;;;;;;;18.69;67.59;100154.28;693802;28;942;-61
2021/08/06 00:25:33;;;;;;;12.52;11.32;;;;;;;18.70;67.73;100149.78;693731;28;866;-61
2021/08/06 00:25:54;;;;;;;12.52;11.32;;;;;;;18.69;67.82;100150.78;693819;28;836;-61
2021/08/06 00:26:15;;;;;;;12.77;11.57;;;;;;;18.66;67.89;100146.53;693815;28;911;-58
2021/08/06 00:26:35;;;;;;;13.15;11.85;;;;;;;18.66;68.02;100153.72;693748;28;864;-59
2021/08/06 00:26:55;;;;;;;12.93;11.50;;;;;;;18.67;67.95;100152.72;693750;28;1330;-59
2021/08/06 00:27:16;;;;;;;12.87;11.57;;;;;;;18.69;67.93;100150.78;693835;28;785;-59
2021/08/06 00:27:36;;;;;;;12.63;11.33;;;;;;;18.69;67.63;100153.44;693667;28;987;-59
2021/08/06 00:27:56;;;;;;;12.52;11.23;;;;;;;18.68;67.73;100147.22;692060;28;1452;-58
2021/08/06 00:28:17;;;;;;;12.13;10.93;;;;;;;18.70;67.77;100152.47;691071;28;864;-59
2021/08/06 00:28:41;;;;;;;11.93;10.70;;;;;;;18.70;67.69;100147.97;691019;28;817;-60
2021/08/06 00:29:01;;;;;;;12.18;10.90;;;;;;;18.72;67.80;100142.53;691001;28;1110;-60
2021/08/06 00:29:22;;;;;;;12.10;10.90;;;;;;;18.70;67.77;100150.63;690943;28;921;-60
2021/08/06 00:29:42;;;;;;;12.07;10.98;;;;;;;18.70;67.78;100144.44;691167;28;836;-60
2021/08/06 00:30:04;;;;;;;11.67;10.60;;;;;;;18.72;67.98;100150.53;691113;28;870;-60
2021/08/06 00:30:24;;;;;;;11.88;10.77;;;;;;;18.72;67.86;100153.22;693066;28;1539;-60
2021/08/06 00:30:44;;;;;;;12.37;11.17;;;;;;;18.69;68.09;100148.09;693838;28;856;-60
2021/08/06 00:31:05;;;;;;;12.07;10.87;;;;;;;18.70;68.15;100149.78;693840;28;991;-60
2021/08/06 00:31:25;;;;;;;12.30;11.02;;;;;;;18.68;67.95;100144.56;693680;28;1374;-60
2021/08/06 00:31:45;;;;;;;12.00;10.80;;;;;;;18.70;67.95;100155.13;693813;28;840;-60
2021/08/06 00:32:06;;;;;;;12.20;11.00;;;;;;;18.70;67.84;100149.78;693675;28;1007;-60
2021/08/06 00:32:26;;;;;;;11.77;10.60;;;;;;;18.69;67.84;100153.44;693748;28;940;-60
2021/08/06 00:32:47;;;;;;;11.88;10.68;;;;;;;18.63;67.83;100143.28;693330;28;1010;-60
2021/08/06 00:33:07;;;;;;;12.13;10.93;;;;;;;18.60;67.96;100147.06;693725;28;912;-60
2021/08/06 00:33:27;;;;;;;11.97;10.87;;;;;;;18.59;68.13;100147.22;693838;28;947;-59
2021/08/06 00:33:50;;;;;;;12.55;11.35;;;;;;;18.60;68.25;100143.56;693755;28;933;-59
2021/08/06 00:34:11;;;;;;;12.30;11.10;;;;;;;18.62;68.05;100141.63;693631;28;1091;-60
2021/08/06 00:34:31;;;;;;;12.50;11.30;;;;;;;18.64;67.97;100144.97;693805;28;856;-60
2021/08/06 00:34:51;;;;;;;12.53;11.30;;;;;;;18.65;68.38;100141.31;693848;28;889;-60
2021/08/06 00:35:12;;;;;;;11.75;10.65;;;;;;;18.63;68.02;100143.28;693702;28;788;-60
2021/08/06 00:35:35;;;;;;;11.63;10.53;;;;;;;18.65;68.18;100141.31;693730;28;971;-60
2021/08/06 00:35:55;;;;;;;11.90;10.70;;;;;;;18.62;68.06;100146.94;691213;28;1455;-60
2021/08/06 00:36:16;;;;;;;11.77;10.57;;;;;;;18.62;68.27;100146.94;690966;28;1030;-60
2021/08/06 00:36:36;;;;;;;11.57;10.38;;;;;;;18.68;67.85;100144.56;691046;28;1106;-60
2021/08/06 00:36:56;;;;;;;11.67;10.57;;;;;;;18.63;67.64;100144.13;690975;28;987;-60
2021/08/06 00:37:17;;;;;;;11.90;10.70;;;;;;;18.60;68.09;100138.22;691049;28;946;-60
2021/08/06 00:37:37;;;;;;;11.77;10.52;;;;;;;18.59;67.92;100136.53;690985;28;1575;-60
2021/08/06 00:37:57;;;;;;;11.17;10.07;;;;;;;18.61;67.61;100139.91;691934;28;1456;-60
2021/08/06 00:38:18;;;;;;;11.50;10.30;;;;;;;18.61;67.99;100145.22;693711;28;923;-59
2021/08/06 00:38:38;;;;;;;11.65;10.45;;;;;;;18.64;67.97;100139.63;693479;28;1440;-60
2021/08/06 00:38:59;;;;;;;11.13;10.07;;;;;;;18.67;67.76;100137.53;693776;28;923;-59
2021/08/06 00:39:19;;;;;;;11.30;10.20;;;;;;;18.62;67.56;100146.94;693736;28;915;-59
2021/08/06 00:39:40;;;;;;;11.50;10.40;;;;;;;18.66;67.56;100148.38;693478;28;1361;-59
2021/08/06 00:40:06;;;;;;;11.13;10.03;;;;;;;18.66;67.71;100145.69;693328;28;1414;-59
2021/08/06 00:40:26;;;;;;;11.10;10.00;;;;;;;18.66;67.73;100151.88;692188;28;1318;-59
2021/08/06 00:40:49;;;;;;;11.00;10.00;;;;;;;18.65;67.69;100141.31;690874;28;999;-59
2021/08/06 00:41:09;;;;;;;11.23;10.13;;;;;;;18.66;67.78;100148.38;691040;28;881;-60
2021/08/06 00:41:29;;;;;;;11.10;10.00;;;;;;;18.66;67.62;100145.69;691034;28;821;-60
2021/08/06 00:41:50;;;;;;;11.15;10.02;;;;;;;18.65;67.60;100139.53;690938;28;1081;-60
2021/08/06 00:42:10;;;;;;;11.33;10.20;;;;;;;18.66;67.48;100140.38;690759;28;1930;-60
2021/08/06 00:42:30;;;;;;;11.47;9.40;;;;;;;18.62;67.74;100144.28;691070;28;928;-60
2021/08/06 00:42:51;;;;;;;11.23;9.95;;;;;;;18.62;67.34;100141.63;690552;28;875;-60
2021/08/06 00:43:14;;;;;;;11.20;10.10;;;;;;;18.61;67.56;100145.22;690961;28;1239;-60
2021/08/06 00:43:37;;;;;;;11.05;9.95;;;;;;;18.57;67.36;100138.47;690963;28;1014;-60
2021/08/06 00:43:58;;;;;;;10.95;9.85;;;;;;;18.57;67.62;100143.81;690934;28;1456;-60
2021/08/06 00:44:18;;;;;;;10.93;9.82;;;;;;;18.57;67.67;100143.81;693603;28;1423;-60
2021/08/06 00:44:38;;;;;;;11.07;9.60;;;;;;;18.59;67.40;100141.88;693631;28;1027;-60
2021/08/06 00:44:59;;;;;;;11.50;10.30;;;;;;;18.61;67.39;100134.56;693777;28;979;-60
2021/08/06 00:45:23;;;;;;;10.95;9.85;;;;;;;18.61;67.54;100145.22;693749;28;861;-61
2021/08/06 00:45:44;;;;;;;11.10;9.70;;;;;;;18.62;67.52;100136.28;693599;28;933;-60
2021/08/06 00:46:05;;;;;;;10.52;9.52;;;;;;;18.62;67.35;100136.28;693628;28;843;-60
2021/08/06 00:46:25;;;;;;;10.60;9.60;;;;;;;18.63;67.37;100132.63;693641;28;867;-60
2021/08/06 00:46:46;;;;;;;10.33;9.33;;;;;;;18.65;67.24;100138.66;693686;28;1188;-60
2021/08/06 00:47:07;;;;;;;10.55;9.55;;;;;;;18.63;67.10;100143.28;693836;28;887;-59
2021/08/06 00:47:27;;;;;;;10.18;9.18;;;;;;;18.60;67.30;100138.22;693690;28;947;-58
2021/08/06 00:47:48;;;;;;;10.37;9.37;;;;;;;18.60;67.25;100138.22;693437;28;1448;-59
2021/08/06 00:48:08;;;;;;;10.20;9.20;;;;;;;18.58;67.22;100137.50;690893;28;1373;-59
2021/08/06 00:48:29;;;;;;;10.00;9.00;;;;;;;18.59;67.34;100136.53;690911;28;876;-59
2021/08/06 00:48:50;;;;;;;9.98;8.98;;;;;;;18.62;67.17;100136.28;691072;28;812;-59
2021/08/06 00:49:10;;;;;;;10.23;9.02;;;;;;;18.62;67.16;100133.59;691082;28;820;-59
2021/08/06 00:49:33;;;;;;;10.15;9.15;;;;;;;18.67;66.96;100136.72;690701;28;895;-59
2021/08/06 00:49:54;;;;;;;9.80;8.80;;;;;;;18.62;67.06;100138.94;690859;28;903;-59
2021/08/06 00:50:17;;;;;;;10.17;9.07;;;;;;;18.58;67.04;100129.47;690590;28;785;-59
2021/08/06 00:50:46;;;;;;;10.25;9.15;;;;;;;18.54;67.37;100128.06;690743;28;978;-59
2021/08/06 00:51:06;;;;;;;9.95;8.95;;;;;;;18.57;67.14;100133.97;690830;28;909;-59
2021/08/06 00:51:27;;;;;;;9.90;8.90;;;;;;;18.57;67.44;100131.31;690801;28;892;-59
2021/08/06 00:51:48;;;;;;;10.20;9.20;;;;;;;18.54;67.73;100128.06;690964;28;883;-59
2021/08/06 00:52:08;;;;;;;10.43;8.73;;;;;;;18.54;67.78;100130.72;690854;28;1034;-59
2021/08/06 00:52:29;;;;;;;9.97;8.87;;;;;;;18.54;67.63;100122.72;690897;28;833;-59
2021/08/06 00:52:50;;;;;;;10.38;9.05;;;;;;;18.52;67.59;100130.03;690439;28;1034;-59
2021/08/06 00:53:10;;;;;;;10.13;9.02;;;;;;;18.53;67.62;100126.38;690692;28;1344;-59
2021/08/06 00:53:31;;;;;;;9.80;8.80;;;;;;;18.49;67.76;100131.97;691104;28;1480;-59
2021/08/06 00:53:51;;;;;;;10.60;9.50;;;;;;;18.46;67.44;100126.06;693712;28;943;-59
2021/08/06 00:54:15;;;;;;;10.88;9.25;;;;;;;18.47;67.55;100127.75;693569;28;899;-59
2021/08/06 00:54:36;;;;;;;9.90;8.90;;;;;;;18.46;67.78;100126.91;693582;28;1051;-60
2021/08/06 00:54:56;;;;;;;9.80;8.80;;;;;;;18.46;67.53;100132.25;693536;28;856;-58
2021/08/06 00:55:16;;;;;;;9.77;8.53;;;;;;;18.47;67.48;100128.59;693423;28;816;-58
2021/08/06 00:55:39;;;;;;;9.50;8.60;;;;;;;18.46;67.65;100128.72;692733;28;1556;-60
2021/08/06 00:56:00;;;;;;;9.95;8.57;;;;;;;18.47;67.64;100131.25;690720;28;962;-60
2021/08/06 00:56:23;;;;;;;9.65;8.65;;;;;;;18.49;67.58;100128.47;690811;28;809;-60
2021/08/06 00:56:47;;;;;;;10.07;9.07;;;;;;;18.56;67.52;100128.78;690779;28;1251;-60
2021/08/06 00:57:12;;;;;;;10.20;9.10;;;;;;;18.56;67.80;100126.13;690992;28;911;-60
2021/08/06 00:57:33;;;;;;;9.50;8.50;;;;;;;18.53;67.93;100132.56;690981;28;1106;-58
2021/08/06 00:57:53;;;;;;;9.53;8.53;;;;;;;18.52;67.55;100130.88;691319;28;1549;-59
2021/08/06 00:58:14;;;;;;;10.03;8.83;;;;;;;18.49;67.96;100126.66;693707;28;812;-59
2021/08/06 00:58:36;;;;;;;9.48;8.50;;;;;;;18.51;67.68;100129.16;693682;28;871;-59
2021/08/06 00:58:56;;;;;;;9.52;8.50;;;;;;;18.48;67.89;100124.97;693629;28;906;-58
2021/08/06 00:59:16;;;;;;;9.20;8.20;;;;;;;18.47;67.78;100128.59;693662;28;908;-58
2021/08/06 00:59:39;;;;;;;9.35;8.35;;;;;;;18.49;68.05;100131.13;693799;28;964;-59
2021/08/06 00:59:59;;;;;;;9.57;8.57;;;;;;;18.45;67.71;100127.88;692753;28;1075;-59
2021/08/06 01:00:20;;;;;;;9.47;8.47;;;;;;;18.46;67.71;100129.56;693726;28;860;-60
2021/08/06 01:00:40;;;;;;;9.57;8.30;;;;;;;18.46;67.86;100126.06;693732;28;885;-60
2021/08/06 01:01:01;;;;;;;9.47;8.47;;;;;;;18.46;67.91;100126.91;693545;28;998;-60
2021/08/06 01:01:23;;;;;;;10.30;8.63;;;;;;;18.48;67.63;100127.63;693784;28;892;-60
2021/08/06 01:01:53;;;;;;;9.18;8.10;;;;;;;18.47;67.95;100128.59;693658;28;829;-60
2021/08/06 01:02:21;;;;;;;9.05;8.10;;;;;;;18.48;67.55;100119.63;693547;28;1910;-60
2021/08/06 01:03:03;;;;;;;9.15;8.23;;;;;;;18.49;67.72;100121.31;693231;28;1129;-59
2021/08/06 01:03:32;;;;;;;9.20;8.30;;;;;;;18.51;67.32;100118.50;693733;28;1026;-60
2021/08/06 01:04:14;;;;;;;9.23;8.32;;;;;;;18.54;67.16;100120.06;693770;28;923;-59
2021/08/06 01:04:43;;;;;;;9.00;8.10;;;;;;;18.50;67.50;100112.31;693514;28;1027;-59
2021/08/06 01:05:08;;;;;;;9.13;7.72;;;;;;;18.51;67.70;100113.16;693585;28;844;-59
2021/08/06 01:05:32;;;;;;;8.93;8.13;;;;;;;18.55;67.33;100116.41;693509;28;940;-60
2021/08/06 01:06:06;;;;;;;8.95;8.05;;;;;;;18.53;67.27;100121.03;691754;28;1937;-60
2021/08/06 01:06:42;;;;;;;9.23;8.13;;;;;;;18.54;67.36;100117.38;690947;28;919;-60
2021/08/06 01:07:08;;;;;;;9.27;8.20;;;;;;;18.48;67.55;100114.28;690826;28;888;-60
2021/08/06 01:07:45;;;;;;;9.05;8.15;;;;;;;18.46;67.56;100115.41;690913;28;1046;-60
2021/08/06 01:08:09;;;;;;;8.88;7.97;;;;;;;18.48;67.55;100119.63;692485;28;1460;-59
2021/08/06 01:08:40;;;;;;;8.77;7.88;;;;;;;18.52;67.76;100114.03;693497;28;903;-59
2021/08/06 01:09:23;;;;;;;9.07;7.80;;;;;;;18.56;67.65;100115.44;693631;28;876;-59
2021/08/06 01:10:13;;;;;;;8.65;7.75;;;;;;;18.41;67.80;100113.13;693383;28;1369;-59
2021/08/06 01:10:53;;;;;;;9.00;8.10;;;;;;;18.40;67.94;100116.75;690353;28;1374;-59
2021/08/06 01:11:15;;;;;;;8.88;7.97;;;;;;;18.39;67.87;100119.56;690710;28;895;-60
2021/08/06 01:11:39;;;;;;;8.65;7.85;;;;;;;18.40;67.85;100115.91;690957;28;940;-59
2021/08/06 01:12:08;;;;;;;9.10;7.82;;;;;;;18.40;67.65;100110.56;691014;28;946;-59
2021/08/06 01:12:50;;;;;;;9.00;7.75;;;;;;;18.41;67.92;100115.78;690890;28;876;-59
2021/08/06 01:13:16;;;;;;;9.13;7.70;;;;;;;18.42;67.99;100119.31;690865;28;817;-61
2021/08/06 01:13:43;;;;;;;8.43;7.50;;;;;;;18.43;68.20;100116.50;690948;28;1050;-59
2021/08/06 01:14:08;;;;;;;8.50;7.50;;;;;;;18.53;67.52;100115.72;691176;28;1413;-59
2021/08/06 01:14:29;;;;;;;8.82;7.50;;;;;;;18.51;67.65;100113.16;690783;28;852;-59
2021/08/06 01:14:50;;;;;;;8.47;7.57;;;;;;;18.50;67.67;100112.31;690903;28;796;-59
2021/08/06 01:15:12;;;;;;;9.15;7.90;;;;;;;18.49;67.77;100110.63;690881;28;890;-59
2021/08/06 01:15:34;;;;;;;8.80;7.53;;;;;;;18.47;67.41;100107.25;691009;28;820;-59
2021/08/06 01:15:57;;;;;;;8.23;7.35;;;;;;;18.46;67.74;100110.91;691026;28;880;-59
2021/08/06 01:16:21;;;;;;;8.48;7.68;;;;;;;18.47;67.52;100120.59;690939;28;761;-59
2021/08/06 01:16:43;;;;;;;8.23;7.30;;;;;;;18.48;67.72;100114.28;690971;28;1333;-59
2021/08/06 01:17:08;;;;;;;9.20;7.65;;;;;;;18.50;67.70;100112.31;690912;28;841;-59
2021/08/06 01:17:34;;;;;;;9.02;7.35;;;;;;;18.53;67.64;100116.56;690932;28;871;-59
2021/08/06 01:17:59;;;;;;;8.88;7.50;;;;;;;18.52;67.63;100114.03;690970;28;1448;-59
2021/08/06 01:18:24;;;;;;;8.48;7.45;;;;;;;18.50;67.47;100112.31;693420;28;1491;-60
2021/08/06 01:18:54;;;;;;;7.90;7.10;;;;;;;18.49;67.78;100117.81;693822;28;951;-59
2021/08/06 01:19:42;;;;;;;8.93;7.28;;;;;;;18.48;67.78;100118.78;693748;28;836;-59
2021/08/06 01:20:12;;;;;;;8.35;7.20;;;;;;;18.44;67.47;100112.88;692966;28;1499;-59
2021/08/06 01:20:43;;;;;;;8.25;7.45;;;;;;;18.46;67.72;100121.56;693587;28;931;-59
2021/08/06 01:21:12;;;;;;;8.48;6.97;;;;;;;18.43;67.95;100111.16;693569;28;1030;-59
2021/08/06 01:21:44;;;;;;;8.05;7.03;;;;;;;18.44;67.86;100112.88;693530;28;974;-59
2021/08/06 01:22:20;;;;;;;7.90;7.10;;;;;;;18.45;67.95;100114.56;693505;28;1927;-59
2021/08/06 01:22:52;;;;;;;8.20;6.95;;;;;;;18.47;67.99;100112.56;693292;28;1022;-58
2021/08/06 01:23:33;;;;;;;8.38;7.07;;;;;;;18.48;67.65;100110.78;693717;28;875;-58
2021/08/06 01:23:57;;;;;;;7.88;7.00;;;;;;;18.45;68.57;100119.88;693639;28;824;-59
2021/08/06 01:24:21;;;;;;;8.18;7.18;;;;;;;18.47;68.28;100115.25;693681;28;896;-60
2021/08/06 01:24:50;;;;;;;7.72;6.93;;;;;;;18.47;68.35;100117.91;693512;28;897;-59
2021/08/06 01:25:13;;;;;;;7.60;6.72;;;;;;;18.47;68.23;100117.06;693708;28;907;-59
2021/08/06 01:25:54;;;;;;;7.13;6.43;;;;;;;18.50;67.91;100112.31;693625;28;848;-59
2021/08/06 01:26:20;;;;;;;8.48;6.85;;;;;;;18.57;67.72;100111.78;693574;28;994;-59
2021/08/06 01:26:45;;;;;;;7.57;6.78;;;;;;;18.53;68.23;100113.03;693403;28;1399;-58
2021/08/06 01:27:06;;;;;;;7.85;6.85;;;;;;;18.48;68.25;100119.63;693609;28;951;-58
2021/08/06 01:27:27;;;;;;;8.30;6.70;;;;;;;18.47;68.34;100111.75;693702;28;931;-58
2021/08/06 01:27:51;;;;;;;8.63;6.97;;;;;;;18.45;68.58;100127.06;692857;28;1547;-59
2021/08/06 01:28:14;;;;;;;8.00;6.85;;;;;;;18.42;68.48;100109.47;692654;28;1420;-59
2021/08/06 01:28:41;;;;;;;7.40;6.60;;;;;;;18.42;68.34;100116.63;690795;28;904;-59
2021/08/06 01:29:02;;;;;;;7.78;6.97;;;;;;;18.41;68.70;100120.25;690834;28;1465;-60
2021/08/06 01:29:22;;;;;;;8.40;6.47;;;;;;;18.36;68.86;100120.66;690973;28;899;-59
2021/08/06 01:29:42;;;;;;;8.27;6.47;;;;;;;18.38;68.96;100118.72;690930;28;870;-59
2021/08/06 01:30:07;;;;;;;7.47;6.60;;;;;;;18.44;68.60;100118.22;692395;28;1476;-58
2021/08/06 01:30:31;;;;;;;7.07;6.38;;;;;;;18.46;69.03;100113.56;693510;28;841;-59
2021/08/06 01:30:52;;;;;;;7.53;6.57;;;;;;;18.47;68.97;100120.59;693589;28;967;-59
2021/08/06 01:31:14;;;;;;;7.53;6.72;;;;;;;18.43;69.22;100108.50;693628;28;1010;-59
2021/08/06 01:31:35;;;;;;;8.25;6.60;;;;;;;18.46;69.27;100120.72;693470;28;1818;-59
2021/08/06 01:31:55;;;;;;;8.32;6.40;;;;;;;18.44;69.74;100120.88;693604;28;876;-59
2021/08/06 01:32:15;;;;;;;7.47;6.30;;;;;;;18.40;70.56;100115.91;693663;28;900;-59
2021/08/06 01:32:38;;;;;;;8.35;6.80;;;;;;;18.32;70.81;100126.41;693611;28;851;-59
2021/08/06 01:32:59;;;;;;;7.53;6.38;;;;;;;18.19;72.25;100121.25;693357;28;896;-59
2021/08/06 01:33:19;;;;;;;7.97;6.53;;;;;;;18.21;71.61;100119.31;693616;28;837;-58
2021/08/06 01:33:42;;;;;;;8.27;6.68;;;;;;;18.12;72.26;100120.94;693583;28;868;-60
2021/08/06 01:34:03;;;;;;;8.23;6.75;;;;;;;18.06;73.20;100113.44;693581;28;856;-59
2021/08/06 01:34:23;;;;;;;8.53;6.70;;;;;;;18.07;73.48;100114.31;692554;28;1444;-59
2021/08/06 01:34:43;;;;;;;8.18;6.47;;;;;;;18.06;74.40;100126.78;690871;28;1007;-59
2021/08/06 01:35:06;;;;;;;8.83;7.00;;;;;;;18.01;74.87;100121.84;690930;28;856;-59
2021/08/06 01:35:26;;;;;;;9.70;7.05;;;;;;;17.99;74.94;100115.78;691126;28;1329;-59
2021/08/06 01:35:47;;;;;;;8.10;6.97;;;;;;;17.91;74.84;100120.91;691682;28;1386;-59
2021/08/06 01:36:07;;;;;;;8.73;7.30;;;;;;;17.86;75.78;100117.81;693454;28;912;-59
2021/08/06 01:36:28;;;;;;;9.10;7.70;;;;;;;17.85;75.93;100113.44;693308;28;1460;-59
2021/08/06 01:36:48;;;;;;;8.70;7.20;;;;;;;17.86;76.02;100112.47;691233;28;1401;-60
2021/08/06 01:37:09;;;;;;;8.70;7.23;;;;;;;17.89;76.24;100116.69;690862;28;791;-60
2021/08/06 01:37:29;;;;;;;8.85;7.18;;;;;;;17.87;76.57;100118.66;690883;28;1441;-60
2021/08/06 01:37:50;;;;;;;8.77;7.40;;;;;;;17.82;76.87;100116.34;691780;28;1321;-59
2021/08/06 01:38:12;;;;;;;8.45;7.30;;;;;;;17.81;77.13;100119.16;690946;28;1397;-60
2021/08/06 01:38:32;;;;;;;8.50;7.38;;;;;;;17.70;77.08;100128.84;691533;28;1373;-59
2021/08/06 01:38:56;;;;;;;9.27;7.37;;;;;;;17.66;77.75;100126.59;690918;28;913;-59
2021/08/06 01:39:19;;;;;;;9.63;7.32;;;;;;;17.45;78.27;100124.72;690727;28;1007;-60
2021/08/06 01:39:39;;;;;;;7.80;7.00;;;;;;;17.44;78.66;100138.13;690839;28;1006;-60
2021/08/06 01:40:06;;;;;;;8.50;7.22;;;;;;;17.35;78.45;100121.09;690813;28;1003;-60
2021/08/06 01:40:30;;;;;;;8.30;7.18;;;;;;;17.43;78.48;100123.97;690530;28;1094;-59
2021/08/06 01:41:13;;;;;;;8.35;7.00;;;;;;;17.39;78.94;100119.88;690846;28;943;-59
2021/08/06 01:41:49;;;;;;;9.50;7.25;;;;;;;17.31;79.34;100131.16;690920;28;903;-59
2021/08/06 01:42:18;;;;;;;8.73;7.35;;;;;;;17.37;79.40;100127.13;690734;28;1960;-59
2021/08/06 01:42:47;;;;;;;9.07;7.40;;;;;;;17.29;80.02;100121.59;690530;28;1117;-58
2021/08/06 01:43:21;;;;;;;9.65;7.32;;;;;;;17.29;80.73;100129.59;690775;28;887;-59
2021/08/06 01:44:02;;;;;;;10.38;7.47;;;;;;;17.29;80.55;100124.25;690916;28;825;-60
2021/08/06 01:44:44;;;;;;;9.57;7.45;;;;;;;17.22;80.55;100123.91;690741;28;909;-60
2021/08/06 01:45:10;;;;;;;9.18;7.18;;;;;;;17.20;80.34;100125.84;690516;28;923;-58
2021/08/06 01:45:37;;;;;;;9.98;7.40;;;;;;;17.22;81.19;100121.25;690620;28;1093;-59
2021/08/06 01:46:09;;;;;;;10.73;7.68;;;;;;;17.19;81.71;100120.66;690659;28;971;-58
2021/08/06 01:46:35;;;;;;;9.02;7.43;;;;;;;17.06;82.25;100124.28;690464;28;1101;-59
2021/08/06 01:47:25;;;;;;;9.50;7.32;;;;;;;17.01;82.01;100122.97;691014;28;1476;-59
2021/08/06 01:47:49;;;;;;;8.68;7.30;;;;;;;17.03;82.39;100126.34;692333;28;1988;-59
2021/08/06 01:48:13;;;;;;;8.48;7.43;;;;;;;17.00;82.22;100122.13;691145;28;1376;-59
2021/08/06 01:48:36;;;;;;;8.43;7.50;;;;;;;16.96;83.28;100122.47;690629;28;864;-60
2021/08/06 01:49:02;;;;;;;9.30;7.90;;;;;;;16.92;82.50;100119.22;690815;28;911;-59
2021/08/06 01:49:34;;;;;;;8.85;7.55;;;;;;;16.84;83.09;100119.00;690931;28;931;-60
2021/08/06 01:50:04;;;;;;;9.73;7.88;;;;;;;16.85;83.64;100115.34;690768;28;1721;-59
2021/08/06 01:50:28;;;;;;;9.40;7.40;;;;;;;16.88;83.75;100115.09;690818;28;1101;-59
2021/08/06 01:50:49;;;;;;;8.85;7.57;;;;;;;16.91;83.40;100114.88;690638;28;883;-59
2021/08/06 01:51:14;;;;;;;9.43;7.95;;;;;;;16.91;83.45;100109.53;690810;28;1061;-60
2021/08/06 01:51:37;;;;;;;9.25;7.93;;;;;;;16.87;83.19;100108.09;690824;28;1026;-59